createdAt,value
2019-04-30T04:34:36.202Z,21.30
2019-04-30T04:40:04.939Z,22.62
2019-04-30T04:45:24.332Z,22.33
2019-04-30T04:50:39.801Z,23.40
2019-04-30T04:55:50.771Z,23.00
2019-04-30T05:01:03.380Z,21.97
2019-04-30T05:06:22.219Z,22.00
2019-04-30T05:11:52.570Z,22.00
2019-04-30T05:16:58.655Z,21.30
2019-04-30T05:22:20.865Z,21.30
2019-04-30T05:28:03.062Z,23.00
2019-04-30T05:33:23.500Z,22.00
2019-04-30T05:39:13.477Z,22.60
2019-04-30T05:44:29.992Z,23.30
2019-04-30T05:49:49.944Z,22.80
2019-04-30T05:55:31.797Z,22.20
2019-04-30T06:00:42.351Z,22.87
2019-04-30T06:06:12.543Z,22.60
2019-04-30T06:11:40.018Z,21.00
2019-04-30T06:17:05.952Z,22.23
2019-04-30T06:22:28.784Z,22.37
2019-04-30T06:27:41.011Z,22.90
2019-04-30T06:32:46.116Z,20.75
2019-04-30T06:37:50.651Z,22.73
2019-04-30T06:42:55.010Z,22.03
2019-04-30T06:48:01.279Z,20.12
2019-04-30T06:53:05.636Z,19.35
2019-04-30T06:58:15.044Z,19.37
2019-04-30T07:03:19.025Z,17.90
2019-04-30T07:08:51.985Z,17.92
2019-04-30T07:13:52.505Z,17.73
2019-04-30T07:18:58.611Z,17.73
2019-04-30T07:24:03.468Z,16.47
2019-04-30T07:29:09.656Z,16.50
2019-04-30T07:34:14.648Z,17.07
2019-04-30T07:39:19.335Z,17.37
2019-04-30T07:44:33.709Z,17.20
2019-04-30T07:49:46.754Z,16.75
2019-04-30T07:54:39.592Z,17.77
2019-04-30T07:59:44.824Z,16.02
2019-04-30T08:05:04.066Z,15.35
2019-04-30T08:10:10.645Z,14.83
2019-04-30T08:15:15.314Z,14.60
2019-04-30T08:20:20.046Z,14.80
2019-04-30T08:47:33.928Z,13.40
2019-04-30T08:52:41.377Z,12.25
2019-04-30T08:57:47.281Z,11.63
2019-04-30T09:02:53.842Z,10.68
2019-04-30T09:07:59.808Z,11.03
2019-04-30T09:13:11.003Z,11.48
2019-04-30T09:19:01.227Z,11.60
2019-04-30T09:24:09.506Z,11.73
2019-04-30T09:29:20.240Z,11.22
2019-04-30T09:34:31.530Z,11.00
2019-04-30T09:39:36.959Z,11.20
2019-04-30T09:44:49.213Z,11.28
2019-04-30T09:49:59.603Z,10.80
2019-04-30T09:55:05.372Z,10.40
2019-04-30T10:00:50.392Z,10.13
2019-04-30T10:06:08.789Z,10.40
2019-04-30T10:11:28.265Z,10.80
2019-04-30T10:16:49.614Z,11.37
2019-04-30T10:21:55.333Z,10.23
2019-04-30T10:27:02.720Z,10.37
